Walnut, California
Current Conditions -  °F | °C
As of 1:53 PM on Thursday 18 Dec 2014 (Local Time) from KCNO Reporting Station
Scattered Clouds Scattered Clouds  
Wind Chill: 63°   Ceiling: Unl
Heat Index: 63°   Visibility: 10mi
Dew Point: 43°   Wind: 5mph
Humidity: 48%   Direction: 240°WSW
Pressure: 30.14"   Gusts: NA
Location:  34.03°N, 117.84°W
Report Text: KCNO 182153Z 24004KT 10SM FEW040 SCT100 SCT200 17/06 A3014 RMK AO2 SLP204 T01720061
Loading
Personal Weather Stations






























Interactive Weather Map New forecast layout! Learn more

10-Day Weather Forecast

Advertisements
Track Severe Weather on mobile